createdAt,value
2023-12-17T00:02:24.768Z,9.28
2023-12-17T00:04:51.368Z,9.28
2023-12-17T00:07:17.983Z,9.28
2023-12-17T00:09:44.490Z,9.27
2023-12-17T00:12:11.064Z,9.28
2023-12-17T00:14:37.576Z,9.30
2023-12-17T00:17:04.263Z,9.29
2023-12-17T00:19:30.871Z,9.28
2023-12-17T00:21:57.585Z,9.28
2023-12-17T00:24:24.154Z,9.28
2023-12-17T00:26:50.685Z,9.28
2023-12-17T00:29:17.316Z,9.27
2023-12-17T00:31:43.784Z,9.28
2023-12-17T00:34:10.483Z,9.28
2023-12-17T00:36:37.143Z,9.28
2023-12-17T00:39:03.676Z,9.28
2023-12-17T00:41:30.257Z,9.26
2023-12-17T00:43:56.827Z,9.27
2023-12-17T00:46:23.573Z,9.28
2023-12-17T00:48:50.241Z,9.28
2023-12-17T00:51:16.927Z,9.27
2023-12-17T00:53:43.441Z,9.26
2023-12-17T00:56:10.915Z,9.26
2023-12-17T00:58:37.778Z,9.27
2023-12-17T01:01:04.924Z,9.27
2023-12-17T01:03:31.892Z,9.25
2023-12-17T01:05:58.683Z,9.25
2023-12-17T01:08:25.251Z,9.25
2023-12-17T01:10:51.784Z,9.24
2023-12-17T01:13:18.502Z,9.22
2023-12-17T01:15:45.168Z,9.22
2023-12-17T01:18:12.251Z,9.20
2023-12-17T01:20:38.996Z,9.19
2023-12-17T01:23:05.576Z,9.19
2023-12-17T01:25:32.085Z,9.19
2023-12-17T01:27:58.975Z,9.18
2023-12-17T01:30:25.672Z,9.15
2023-12-17T01:32:52.403Z,9.16
2023-12-17T01:35:19.008Z,9.16
2023-12-17T01:37:45.551Z,9.15
2023-12-17T01:40:12.396Z,9.17
2023-12-17T01:42:39.019Z,9.16
2023-12-17T01:45:07.362Z,9.17
2023-12-17T01:47:34.233Z,9.17
2023-12-17T01:50:00.833Z,9.17
2023-12-17T01:52:27.493Z,9.17
2023-12-17T01:54:54.026Z,9.17
2023-12-17T01:57:20.710Z,9.17
2023-12-17T01:59:48.115Z,9.17
2023-12-17T02:02:14.841Z,9.16
2023-12-17T02:04:41.589Z,9.16
2023-12-17T02:07:08.486Z,9.17
2023-12-17T02:09:35.236Z,9.15
2023-12-17T02:12:01.767Z,9.16
2023-12-17T02:14:28.438Z,9.16
2023-12-17T02:16:55.093Z,9.16
2023-12-17T02:19:21.904Z,9.16
2023-12-17T02:21:48.696Z,9.16
2023-12-17T02:24:15.581Z,9.16
2023-12-17T02:26:43.924Z,9.14
2023-12-17T02:29:10.636Z,9.15
2023-12-17T02:31:37.193Z,9.15
2023-12-17T02:34:03.847Z,9.16
2023-12-17T02:36:30.467Z,9.13
2023-12-17T02:38:57.103Z,9.14
2023-12-17T02:41:23.671Z,9.14
2023-12-17T02:43:50.846Z,9.14
2023-12-17T02:46:17.475Z,9.12
2023-12-17T02:48:44.265Z,9.13
2023-12-17T02:51:10.972Z,9.12
2023-12-17T02:53:37.569Z,9.12
2023-12-17T02:56:04.281Z,9.11
2023-12-17T02:58:30.845Z,9.12
2023-12-17T03:00:57.493Z,9.10
2023-12-17T03:03:24.149Z,9.11
2023-12-17T03:05:50.898Z,9.11
2023-12-17T03:08:17.408Z,9.11
2023-12-17T03:10:44.364Z,9.12
2023-12-17T03:13:11.063Z,9.10
2023-12-17T03:15:38.788Z,9.11
2023-12-17T03:18:05.841Z,9.11
2023-12-17T03:20:32.567Z,9.11
2023-12-17T03:22:59.482Z,9.10
2023-12-17T03:25:27.223Z,9.10
2023-12-17T03:27:54.075Z,9.11
2023-12-17T03:30:21.060Z,9.11
2023-12-17T03:32:48.007Z,9.11
2023-12-17T03:35:15.030Z,9.11
2023-12-17T03:37:41.848Z,9.10
2023-12-17T03:40:09.033Z,9.10
2023-12-17T03:42:35.615Z,9.09
2023-12-17T03:45:02.827Z,9.10
2023-12-17T03:47:29.575Z,9.10
2023-12-17T03:49:56.334Z,9.09
2023-12-17T03:52:22.859Z,9.09
2023-12-17T03:54:49.404Z,9.09
2023-12-17T03:57:15.943Z,9.08
2023-12-17T03:59:42.507Z,9.08
2023-12-17T04:02:09.172Z,9.09
2023-12-17T04:04:35.646Z,9.08
2023-12-17T04:07:02.162Z,9.07
2023-12-17T04:09:28.780Z,9.07
2023-12-17T04:11:55.853Z,9.06
2023-12-17T04:14:23.041Z,9.05
2023-12-17T04:16:49.595Z,9.06
2023-12-17T04:19:16.450Z,9.05
2023-12-17T04:21:43.129Z,9.03
2023-12-17T04:24:09.680Z,9.04
2023-12-17T04:26:36.899Z,9.03
2023-12-17T04:29:03.498Z,9.03
2023-12-17T04:31:30.028Z,9.01
2023-12-17T04:33:56.884Z,9.00
2023-12-17T04:36:23.544Z,9.00
2023-12-17T04:38:50.101Z,9.00
2023-12-17T04:41:16.795Z,8.99
2023-12-17T04:43:43.358Z,8.99
2023-12-17T04:46:10.665Z,8.98
2023-12-17T04:48:37.241Z,8.96
2023-12-17T04:51:04.130Z,8.96
2023-12-17T04:53:30.685Z,8.95
2023-12-17T04:55:57.205Z,8.94
2023-12-17T04:58:25.760Z,8.91
2023-12-17T05:00:52.367Z,8.89
2023-12-17T05:03:19.181Z,8.89
2023-12-17T05:05:45.804Z,8.86
2023-12-17T05:08:12.456Z,8.86
2023-12-17T05:10:38.935Z,8.85
2023-12-17T05:13:05.412Z,8.84
2023-12-17T05:15:32.908Z,8.84
2023-12-17T05:18:00.104Z,8.84
2023-12-17T05:20:26.782Z,8.83
2023-12-17T05:22:53.396Z,8.83
2023-12-17T05:25:19.992Z,8.83
2023-12-17T05:27:46.423Z,8.82
2023-12-17T05:30:13.406Z,8.83
2023-12-17T05:32:40.529Z,8.80
2023-12-17T05:35:07.673Z,8.81
2023-12-17T05:37:34.675Z,8.81
2023-12-17T05:40:01.988Z,8.80
2023-12-17T05:42:28.643Z,8.80
2023-12-17T05:44:55.312Z,8.78
2023-12-17T05:47:21.852Z,8.79
2023-12-17T05:49:48.577Z,8.80
2023-12-17T05:52:15.299Z,8.80
2023-12-17T05:54:44.136Z,8.79
2023-12-17T05:57:10.661Z,8.80
2023-12-17T05:59:37.422Z,8.80
2023-12-17T06:02:04.400Z,8.78
2023-12-17T06:04:30.904Z,8.77
2023-12-17T06:06:57.617Z,8.78
2023-12-17T06:09:24.324Z,8.76
2023-12-17T06:11:51.157Z,8.75
2023-12-17T06:14:20.991Z,8.76
2023-12-17T06:16:47.691Z,8.75
2023-12-17T06:19:14.386Z,8.74
2023-12-17T06:21:40.887Z,8.76
2023-12-17T06:24:08.627Z,8.75
2023-12-17T06:26:38.603Z,8.74
2023-12-17T06:29:05.437Z,8.74
2023-12-17T06:31:32.422Z,8.72
2023-12-17T06:33:59.223Z,8.72
2023-12-17T06:36:26.022Z,8.73
2023-12-17T06:38:52.910Z,8.75
2023-12-17T06:41:19.990Z,8.73
2023-12-17T06:43:46.643Z,8.72
2023-12-17T06:46:17.743Z,8.72
2023-12-17T06:48:44.801Z,8.71
2023-12-17T06:51:14.632Z,8.68
2023-12-17T06:53:41.181Z,8.68
2023-12-17T06:56:08.134Z,8.67
2023-12-17T06:58:35.313Z,8.68
2023-12-17T07:01:02.476Z,8.68
2023-12-17T07:03:29.276Z,8.66
2023-12-17T07:05:56.009Z,8.66
2023-12-17T07:08:22.985Z,8.64
2023-12-17T07:10:49.511Z,8.64
2023-12-17T07:13:16.850Z,8.62
2023-12-17T07:15:44.814Z,8.62
2023-12-17T07:18:11.542Z,8.61
2023-12-17T07:20:38.342Z,8.61
2023-12-17T07:23:04.872Z,8.60
2023-12-17T07:25:31.391Z,8.61
2023-12-17T07:27:57.933Z,8.61
2023-12-17T07:30:24.611Z,8.61
2023-12-17T07:32:51.231Z,8.61
2023-12-17T07:35:17.965Z,8.60
2023-12-17T07:37:44.617Z,8.60
2023-12-17T07:40:11.466Z,8.59
2023-12-17T07:42:38.088Z,8.59
2023-12-17T07:45:06.082Z,8.58
2023-12-17T07:47:34.041Z,8.58
2023-12-17T07:50:00.737Z,8.58
2023-12-17T07:52:27.213Z,8.59
2023-12-17T07:54:54.404Z,8.57
2023-12-17T07:57:21.481Z,8.57
2023-12-17T07:59:48.330Z,8.54
2023-12-17T08:02:17.834Z,8.55
2023-12-17T08:04:46.235Z,8.55
2023-12-17T08:07:13.230Z,8.55
2023-12-17T08:09:40.640Z,8.54
2023-12-17T08:12:07.717Z,8.56
2023-12-17T08:14:34.224Z,8.51
2023-12-17T08:17:00.891Z,8.49
2023-12-17T08:19:27.563Z,8.47
2023-12-17T08:21:54.139Z,8.47
2023-12-17T08:24:20.892Z,8.48
2023-12-17T08:26:47.520Z,8.48
2023-12-17T08:29:14.488Z,8.47
2023-12-17T08:31:46.781Z,8.46
2023-12-17T08:34:13.774Z,8.44
2023-12-17T08:36:45.029Z,8.41
2023-12-17T08:39:13.046Z,8.40
2023-12-17T08:41:40.507Z,8.40
2023-12-17T08:44:07.460Z,8.40
2023-12-17T08:46:34.807Z,8.37
2023-12-17T08:49:02.582Z,8.34
2023-12-17T08:51:29.376Z,8.31
2023-12-17T08:53:56.071Z,8.32
2023-12-17T08:56:23.391Z,8.32
2023-12-17T08:58:50.244Z,8.32
2023-12-17T09:01:19.024Z,8.32
2023-12-17T09:03:46.258Z,8.31
2023-12-17T09:06:13.106Z,8.32
2023-12-17T09:08:39.784Z,8.33
2023-12-17T09:11:06.562Z,8.31
2023-12-17T09:13:33.664Z,8.31
2023-12-17T09:16:00.240Z,8.34
2023-12-17T09:18:26.964Z,8.34
2023-12-17T09:20:53.739Z,8.38
2023-12-17T09:23:20.490Z,8.39
2023-12-17T09:25:47.011Z,8.38
2023-12-17T09:28:13.554Z,8.37
2023-12-17T09:30:40.130Z,8.38
2023-12-17T09:33:07.665Z,8.38
2023-12-17T09:35:34.356Z,8.39
2023-12-17T09:38:00.888Z,8.34
2023-12-17T09:40:27.500Z,8.34
2023-12-17T09:42:54.724Z,8.33
2023-12-17T09:45:21.520Z,8.34
2023-12-17T09:47:49.014Z,8.35
2023-12-17T09:50:15.719Z,8.32
2023-12-17T09:52:45.635Z,8.27
2023-12-17T09:55:12.410Z,8.24
2023-12-17T09:57:39.642Z,8.26
2023-12-17T10:00:10.960Z,8.30
2023-12-17T10:02:39.645Z,8.31
2023-12-17T10:05:07.775Z,8.28
2023-12-17T10:07:35.222Z,8.27
2023-12-17T10:10:01.870Z,8.30
2023-12-17T10:12:29.212Z,8.29
2023-12-17T10:14:56.557Z,8.26
2023-12-17T10:17:23.108Z,8.26
2023-12-17T10:19:56.226Z,8.27
2023-12-17T10:22:24.116Z,8.26
2023-12-17T10:24:50.612Z,8.24
2023-12-17T10:27:21.820Z,8.22
2023-12-17T10:29:53.616Z,8.25
2023-12-17T10:32:24.411Z,8.25
2023-12-17T10:34:52.510Z,8.22
2023-12-17T10:37:20.924Z,8.18
2023-12-17T10:39:51.663Z,8.16
2023-12-17T10:42:19.485Z,8.15
2023-12-17T10:44:51.201Z,8.18
2023-12-17T10:47:25.451Z,8.20
2023-12-17T10:49:56.896Z,8.19
2023-12-17T10:52:26.288Z,8.22
2023-12-17T10:54:52.891Z,8.23
2023-12-17T10:57:24.299Z,8.23
2023-12-17T10:59:53.920Z,8.22
2023-12-17T11:02:23.530Z,8.25
2023-12-17T11:04:50.516Z,8.27
2023-12-17T11:07:27.146Z,8.26
2023-12-17T11:10:01.694Z,8.27
2023-12-17T11:12:28.507Z,8.30
2023-12-17T11:14:55.364Z,8.30
2023-12-17T11:17:22.870Z,8.34
2023-12-17T11:19:57.358Z,8.39
2023-12-17T11:22:25.735Z,8.46
2023-12-17T11:24:57.559Z,8.48
2023-12-17T11:27:24.655Z,8.56
2023-12-17T11:29:52.316Z,8.59
2023-12-17T11:32:20.691Z,8.61
2023-12-17T11:34:51.724Z,8.57
2023-12-17T11:37:23.366Z,8.61
2023-12-17T11:39:51.407Z,8.66
2023-12-17T11:42:19.911Z,8.68
2023-12-17T11:44:48.347Z,8.61
2023-12-17T11:47:16.269Z,8.62
2023-12-17T11:49:46.286Z,8.58
2023-12-17T11:52:15.416Z,8.61
2023-12-17T11:54:43.410Z,8.61
2023-12-17T11:57:24.394Z,8.65
2023-12-17T11:59:51.919Z,8.68
2023-12-17T12:02:19.980Z,8.68
2023-12-17T12:04:47.471Z,8.66
2023-12-17T12:07:18.962Z,8.64
2023-12-17T12:09:46.519Z,8.63
2023-12-17T12:12:21.265Z,8.67
2023-12-17T12:14:49.844Z,8.67
2023-12-17T12:17:42.922Z,8.68
2023-12-17T12:20:12.156Z,8.70
2023-12-17T12:22:44.110Z,8.68
2023-12-17T12:25:13.568Z,8.69
2023-12-17T12:27:40.146Z,8.72
2023-12-17T12:30:07.510Z,8.75
2023-12-17T12:32:35.218Z,8.74
2023-12-17T12:35:02.125Z,8.74
2023-12-17T12:37:36.222Z,8.73
2023-12-17T12:40:05.956Z,8.75
2023-12-17T12:42:35.004Z,8.76
2023-12-17T12:45:01.941Z,8.75
2023-12-17T12:47:29.902Z,8.73
2023-12-17T12:49:56.567Z,8.71
2023-12-17T12:52:24.132Z,8.73
2023-12-17T12:54:53.866Z,8.72
2023-12-17T12:57:21.008Z,8.73
2023-12-17T12:59:47.837Z,8.74
2023-12-17T13:02:14.452Z,8.75
2023-12-17T13:04:40.967Z,8.76
2023-12-17T13:07:08.097Z,8.76
2023-12-17T13:09:35.526Z,8.75
2023-12-17T13:12:02.074Z,8.75
2023-12-17T13:14:31.407Z,8.75
2023-12-17T13:16:58.120Z,8.75
2023-12-17T13:19:25.897Z,8.76
2023-12-17T13:21:53.370Z,8.76
2023-12-17T13:24:21.777Z,8.77
2023-12-17T13:26:48.363Z,8.79
2023-12-17T13:29:15.192Z,8.78
2023-12-17T13:31:41.743Z,8.79
2023-12-17T13:34:08.413Z,8.80
2023-12-17T13:36:35.500Z,8.81
2023-12-17T13:39:01.996Z,8.82
2023-12-17T13:41:28.815Z,8.83
2023-12-17T13:43:55.783Z,8.83
2023-12-17T13:46:22.300Z,8.81
2023-12-17T13:48:49.189Z,8.79
2023-12-17T13:51:16.376Z,8.78
2023-12-17T13:53:43.565Z,8.78
2023-12-17T13:56:10.343Z,8.77
2023-12-17T13:58:37.509Z,8.76
2023-12-17T14:01:04.229Z,8.74
2023-12-17T14:03:31.182Z,8.73
2023-12-17T14:05:57.947Z,8.72
2023-12-17T14:08:24.516Z,8.71
2023-12-17T14:10:51.140Z,8.68
2023-12-17T14:13:21.351Z,8.66
2023-12-17T14:15:47.966Z,8.65
2023-12-17T14:18:14.668Z,8.62
2023-12-17T14:20:41.258Z,8.58
2023-12-17T14:23:08.244Z,8.57
2023-12-17T14:25:39.827Z,8.55
2023-12-17T14:28:09.545Z,8.51
2023-12-17T14:30:36.301Z,8.48
2023-12-17T14:33:03.167Z,8.47
2023-12-17T14:35:29.978Z,8.44
2023-12-17T14:37:56.499Z,8.41
2023-12-17T14:40:24.246Z,8.38
2023-12-17T14:42:50.848Z,8.35
2023-12-17T14:45:17.474Z,8.32
2023-12-17T14:47:44.526Z,8.30
2023-12-17T14:50:11.307Z,8.26
2023-12-17T14:52:37.988Z,8.23
2023-12-17T14:55:06.402Z,8.19
2023-12-17T14:57:33.353Z,8.16
2023-12-17T15:00:00.420Z,8.13
2023-12-17T15:02:29.005Z,8.10
2023-12-17T15:04:55.928Z,8.07
2023-12-17T15:07:22.566Z,8.03
2023-12-17T15:10:00.146Z,8.00
2023-12-17T15:12:26.998Z,7.96
2023-12-17T15:14:53.835Z,7.93
2023-12-17T15:17:21.834Z,7.87
2023-12-17T15:19:48.657Z,7.85
2023-12-17T15:22:18.201Z,7.82
2023-12-17T15:24:45.207Z,7.79
2023-12-17T15:27:11.844Z,7.74
2023-12-17T15:29:39.102Z,7.71
2023-12-17T15:32:07.507Z,7.67
2023-12-17T15:34:34.723Z,7.65
2023-12-17T15:37:01.349Z,7.64
2023-12-17T15:39:29.339Z,7.60
2023-12-17T15:41:59.694Z,7.59
2023-12-17T15:44:28.307Z,7.56
2023-12-17T15:46:54.888Z,7.55
2023-12-17T15:49:22.347Z,7.50
2023-12-17T15:51:49.022Z,7.45
2023-12-17T15:54:15.624Z,7.42
2023-12-17T15:56:42.336Z,7.38
2023-12-17T15:59:09.042Z,7.34
2023-12-17T16:01:35.745Z,7.31
2023-12-17T16:04:02.325Z,7.29
2023-12-17T16:06:28.968Z,7.26
2023-12-17T16:08:55.754Z,7.22
2023-12-17T16:11:23.493Z,7.23
2023-12-17T16:13:50.165Z,7.20
2023-12-17T16:16:23.910Z,7.20
2023-12-17T16:18:51.047Z,7.19
2023-12-17T16:21:17.867Z,7.18
2023-12-17T16:23:45.354Z,7.17
2023-12-17T16:26:12.071Z,7.17
2023-12-17T16:28:39.089Z,7.14
2023-12-17T16:31:06.317Z,7.10
2023-12-17T16:33:33.205Z,7.08
2023-12-17T16:36:00.062Z,7.06
2023-12-17T16:38:26.879Z,7.03
2023-12-17T16:40:53.355Z,7.03
2023-12-17T16:43:19.907Z,7.01
2023-12-17T16:45:47.715Z,6.98
2023-12-17T16:48:16.728Z,6.95
2023-12-17T16:50:46.055Z,6.93
2023-12-17T16:53:12.905Z,6.91
2023-12-17T16:55:40.769Z,6.91
2023-12-17T16:58:07.548Z,6.88
2023-12-17T17:00:34.194Z,6.84
2023-12-17T17:03:00.742Z,6.80
2023-12-17T17:05:27.863Z,6.77
2023-12-17T17:07:55.071Z,6.77
2023-12-17T17:10:22.146Z,6.76
2023-12-17T17:12:51.653Z,6.75
2023-12-17T17:15:18.324Z,6.72
2023-12-17T17:17:44.858Z,6.69
2023-12-17T17:20:12.128Z,6.70
2023-12-17T17:22:39.321Z,6.66
2023-12-17T17:25:06.855Z,6.63
2023-12-17T17:27:33.373Z,6.61
2023-12-17T17:30:01.065Z,6.59
2023-12-17T17:32:28.821Z,6.56
2023-12-17T17:34:55.397Z,6.53
2023-12-17T17:37:21.946Z,6.52
2023-12-17T17:39:48.464Z,6.50
2023-12-17T17:42:15.234Z,6.48
2023-12-17T17:44:41.751Z,6.45
2023-12-17T17:47:08.317Z,6.42
2023-12-17T17:49:34.865Z,6.41
2023-12-17T17:52:01.460Z,6.40
2023-12-17T17:54:27.904Z,6.37
2023-12-17T17:56:54.786Z,6.35
2023-12-17T17:59:21.297Z,6.32
2023-12-17T18:01:47.896Z,6.31
2023-12-17T18:04:14.514Z,6.29
2023-12-17T18:06:42.387Z,6.27
2023-12-17T18:09:09.057Z,6.24
2023-12-17T18:11:35.710Z,6.23
2023-12-17T18:14:02.281Z,6.21
2023-12-17T18:16:28.762Z,6.21
2023-12-17T18:18:55.744Z,6.19
2023-12-17T18:21:23.506Z,6.18
2023-12-17T18:23:50.322Z,6.15
2023-12-17T18:26:24.091Z,6.14
2023-12-17T18:28:53.056Z,6.12
2023-12-17T18:31:19.593Z,6.09
2023-12-17T18:33:47.787Z,6.07
2023-12-17T18:36:14.529Z,6.07
2023-12-17T18:38:46.331Z,6.05
2023-12-17T18:41:14.488Z,6.03
2023-12-17T18:43:41.658Z,6.01
2023-12-17T18:46:15.955Z,5.98
2023-12-17T18:48:43.651Z,5.95
2023-12-17T18:51:10.942Z,5.95
2023-12-17T18:53:38.989Z,5.92
2023-12-17T18:56:06.160Z,5.91
2023-12-17T18:58:33.313Z,5.90
2023-12-17T19:00:59.957Z,5.88
2023-12-17T19:03:26.597Z,5.84
2023-12-17T19:05:53.353Z,5.82
2023-12-17T19:08:19.894Z,5.80
2023-12-17T19:10:46.532Z,5.77
2023-12-17T19:13:13.334Z,5.75
2023-12-17T19:15:40.885Z,5.72
2023-12-17T19:18:07.780Z,5.69
2023-12-17T19:20:35.577Z,5.69
2023-12-17T19:23:02.089Z,5.65
2023-12-17T19:25:28.596Z,5.64
2023-12-17T19:27:55.313Z,5.61
2023-12-17T19:30:22.063Z,5.60
2023-12-17T19:32:48.679Z,5.56
2023-12-17T19:35:15.228Z,5.54
2023-12-17T19:37:42.039Z,5.52
2023-12-17T19:40:09.216Z,5.51
2023-12-17T19:42:36.016Z,5.48
2023-12-17T19:45:05.332Z,5.46
2023-12-17T19:47:32.059Z,5.46
2023-12-17T19:49:58.774Z,5.44
2023-12-17T19:52:25.343Z,5.42
2023-12-17T19:54:51.837Z,5.38
2023-12-17T19:57:18.394Z,5.35
2023-12-17T19:59:45.162Z,5.33
2023-12-17T20:02:12.736Z,5.30
2023-12-17T20:04:39.336Z,5.29
2023-12-17T20:07:05.922Z,5.28
2023-12-17T20:09:32.523Z,5.24
2023-12-17T20:12:00.161Z,5.22
2023-12-17T20:14:26.747Z,5.20
2023-12-17T20:16:53.393Z,5.17
2023-12-17T20:19:19.907Z,5.15
2023-12-17T20:21:46.569Z,5.13
2023-12-17T20:24:14.359Z,5.11
2023-12-17T20:26:41.273Z,5.09
2023-12-17T20:29:07.881Z,5.07
2023-12-17T20:31:34.641Z,5.06
2023-12-17T20:34:01.337Z,5.08
2023-12-17T20:36:28.016Z,5.09
2023-12-17T20:38:54.558Z,5.13
2023-12-17T20:41:21.012Z,5.13
2023-12-17T20:43:47.607Z,5.15
2023-12-17T20:46:14.814Z,5.17
2023-12-17T20:48:41.448Z,5.19
2023-12-17T20:51:08.079Z,5.22
2023-12-17T20:53:34.593Z,5.25
2023-12-17T20:56:02.382Z,5.29
2023-12-17T20:58:28.815Z,5.31
2023-12-17T21:00:55.621Z,5.33
2023-12-17T21:03:22.316Z,5.35
2023-12-17T21:05:49.106Z,5.38
2023-12-17T21:08:15.867Z,5.40
2023-12-17T21:10:42.648Z,5.43
2023-12-17T21:13:09.400Z,5.45
2023-12-17T21:15:36.039Z,5.47
2023-12-17T21:18:03.264Z,5.49
2023-12-17T21:20:32.152Z,5.51
2023-12-17T21:22:58.861Z,5.53
2023-12-17T21:25:25.458Z,5.54
2023-12-17T21:27:52.097Z,5.57
2023-12-17T21:30:18.959Z,5.57
2023-12-17T21:32:45.853Z,5.59
2023-12-17T21:35:12.430Z,5.60
2023-12-17T21:37:39.094Z,5.61
2023-12-17T21:40:06.434Z,5.63
2023-12-17T21:42:32.962Z,5.64
2023-12-17T21:44:59.536Z,5.65
2023-12-17T21:47:26.155Z,5.69
2023-12-17T21:49:52.904Z,5.68
2023-12-17T21:52:29.436Z,5.69
2023-12-17T21:55:00.888Z,5.70
2023-12-17T21:57:40.210Z,5.72
2023-12-17T22:00:16.483Z,5.76
2023-12-17T22:02:43.350Z,5.78
2023-12-17T22:05:09.958Z,5.80
2023-12-17T22:07:36.517Z,5.81
2023-12-17T22:10:03.815Z,5.83
2023-12-17T22:12:30.350Z,5.86
2023-12-17T22:14:56.935Z,5.90
2023-12-17T22:17:23.446Z,5.95
2023-12-17T22:19:50.105Z,6.03
2023-12-17T22:22:16.698Z,6.06
2023-12-17T22:24:43.956Z,6.05
2023-12-17T22:27:10.720Z,6.06
2023-12-17T22:29:37.187Z,6.07
2023-12-17T22:32:04.284Z,6.08
2023-12-17T22:34:31.821Z,6.10
2023-12-17T22:36:58.446Z,6.10
2023-12-17T22:39:25.203Z,6.11
2023-12-17T22:41:52.704Z,6.14
2023-12-17T22:44:20.775Z,6.14
2023-12-17T22:46:48.908Z,6.15
2023-12-17T22:49:15.515Z,6.17
2023-12-17T22:51:42.182Z,6.18
2023-12-17T22:54:08.758Z,6.20
2023-12-17T22:56:38.967Z,6.21
2023-12-17T22:59:06.009Z,6.22
2023-12-17T23:01:32.928Z,6.23
2023-12-17T23:03:59.834Z,6.23
2023-12-17T23:06:26.969Z,6.25
2023-12-17T23:08:53.555Z,6.27
2023-12-17T23:11:22.229Z,6.28
2023-12-17T23:13:48.939Z,6.29
2023-12-17T23:16:15.539Z,6.30
2023-12-17T23:18:42.171Z,6.31
2023-12-17T23:21:08.889Z,6.32
2023-12-17T23:23:35.488Z,6.34
2023-12-17T23:26:02.049Z,6.36
2023-12-17T23:28:28.643Z,6.35
2023-12-17T23:30:55.278Z,6.36
2023-12-17T23:33:21.999Z,6.36
2023-12-17T23:35:48.630Z,6.38
2023-12-17T23:38:15.270Z,6.37
2023-12-17T23:40:41.786Z,6.36
2023-12-17T23:43:08.372Z,6.34
2023-12-17T23:45:34.892Z,6.33
2023-12-17T23:48:02.491Z,6.35
2023-12-17T23:50:29.279Z,6.34
2023-12-17T23:52:55.828Z,6.30
2023-12-17T23:55:22.453Z,6.29
2023-12-17T23:57:49.056Z,6.28
